createdAt,value
2018-03-31T00:00:29.696Z,99338.52
2018-03-31T00:02:55.663Z,99339.83
2018-03-31T00:05:21.618Z,99341.94
2018-03-31T00:07:47.561Z,99343.54
2018-03-31T00:10:13.618Z,99347.33
2018-03-31T00:12:39.566Z,99339.47
2018-03-31T00:15:05.526Z,99344.33
2018-03-31T00:17:31.477Z,99340.14
2018-03-31T00:19:57.420Z,99343.03
2018-03-31T00:22:23.388Z,99349.88
2018-03-31T00:24:49.435Z,99345.12
2018-03-31T00:27:15.483Z,99345.55
2018-03-31T00:29:41.434Z,99344.66
2018-03-31T00:32:07.389Z,99343.80
2018-03-31T00:34:33.357Z,99337.33
2018-03-31T00:36:59.309Z,99334.03
2018-03-31T00:39:25.265Z,99328.16
2018-03-31T00:41:51.210Z,99328.25
2018-03-31T00:44:17.173Z,99328.50
2018-03-31T00:46:43.122Z,99328.39
2018-03-31T00:49:09.085Z,99322.96
2018-03-31T00:51:35.042Z,99322.12
2018-03-31T00:54:00.999Z,99313.77
2018-03-31T00:56:26.922Z,99325.81
2018-03-31T00:58:52.893Z,99323.13
2018-03-31T01:01:18.833Z,99326.98
2018-03-31T01:03:44.808Z,99330.94
2018-03-31T01:06:10.765Z,99331.53
2018-03-31T01:08:36.714Z,99327.75
2018-03-31T01:11:02.677Z,99330.50
2018-03-31T01:13:28.625Z,99333.90
2018-03-31T01:15:54.690Z,99333.73
2018-03-31T01:18:20.625Z,99330.50
2018-03-31T01:20:46.580Z,99334.03
2018-03-31T01:23:12.521Z,99326.38
2018-03-31T01:25:38.459Z,99334.79
2018-03-31T01:28:04.401Z,99344.08
2018-03-31T01:30:30.354Z,99339.22
2018-03-31T01:32:56.311Z,99338.89
2018-03-31T01:35:22.326Z,99342.80
2018-03-31T01:37:48.413Z,99340.73
2018-03-31T01:40:14.354Z,99338.26
2018-03-31T01:42:40.315Z,99337.28
2018-03-31T01:45:06.272Z,99336.83
2018-03-31T01:47:32.201Z,99336.56
2018-03-31T01:49:58.138Z,99336.52
2018-03-31T01:52:24.083Z,99333.22
2018-03-31T01:54:50.049Z,99337.42
2018-03-31T01:57:15.981Z,99333.95
2018-03-31T01:59:41.960Z,99336.63
2018-03-31T02:02:07.890Z,99331.63
2018-03-31T02:04:33.906Z,99325.85
2018-03-31T02:06:59.850Z,99330.61
2018-03-31T02:09:25.781Z,99321.28
2018-03-31T02:11:51.726Z,99328.63
2018-03-31T02:14:17.761Z,99331.13
2018-03-31T02:16:43.733Z,99331.67
2018-03-31T02:19:09.704Z,99335.96
2018-03-31T02:21:35.691Z,99335.93
2018-03-31T02:24:01.626Z,99337.84
2018-03-31T02:26:27.573Z,99334.69
2018-03-31T02:28:53.512Z,99334.86
2018-03-31T02:31:19.446Z,99336.58
2018-03-31T02:33:45.394Z,99337.84
2018-03-31T02:36:11.342Z,99340.53
2018-03-31T02:38:37.295Z,99338.77
2018-03-31T02:41:03.246Z,99338.92
2018-03-31T02:43:29.181Z,99338.50
2018-03-31T02:45:55.128Z,99336.48
2018-03-31T02:48:21.141Z,99340.94
2018-03-31T02:50:47.105Z,99338.56
2018-03-31T02:53:13.044Z,99336.80
2018-03-31T02:55:39.001Z,99343.53
2018-03-31T02:58:04.942Z,99334.97
2018-03-31T03:00:30.901Z,99341.56
2018-03-31T03:02:56.856Z,99341.75
2018-03-31T03:05:22.810Z,99346.88
2018-03-31T03:07:48.751Z,99343.33
2018-03-31T03:10:14.698Z,99342.97
2018-03-31T03:12:40.639Z,99349.00
2018-03-31T03:15:06.578Z,99356.95
2018-03-31T03:17:32.525Z,99352.86
2018-03-31T03:19:58.470Z,99354.17
2018-03-31T03:22:24.413Z,99352.55
2018-03-31T03:24:50.435Z,99346.77
2018-03-31T03:27:16.372Z,99347.52
2018-03-31T03:29:42.309Z,99349.97
2018-03-31T03:32:08.260Z,99356.91
2018-03-31T03:34:34.237Z,99353.87
2018-03-31T03:37:00.187Z,99360.20
2018-03-31T03:39:26.118Z,99366.34
2018-03-31T03:41:52.074Z,99366.48
2018-03-31T03:44:18.074Z,99361.77
2018-03-31T03:46:44.017Z,99373.88
2018-03-31T03:49:10.010Z,99380.78
2018-03-31T03:51:35.967Z,99385.73
2018-03-31T03:54:01.910Z,99379.41
2018-03-31T03:56:27.929Z,99380.88
2018-03-31T03:58:53.889Z,99384.42
2018-03-31T04:01:19.829Z,99385.98
2018-03-31T04:03:45.837Z,99385.91
2018-03-31T04:06:11.793Z,99386.86
2018-03-31T04:08:37.738Z,99386.95
2018-03-31T04:11:03.702Z,99378.81
2018-03-31T04:13:29.708Z,99379.30
2018-03-31T04:15:55.667Z,99375.86
2018-03-31T04:18:21.639Z,99375.01
2018-03-31T04:20:47.576Z,99372.02
2018-03-31T04:23:13.520Z,99374.71
2018-03-31T04:25:39.483Z,99373.49
2018-03-31T04:28:05.420Z,99371.78
2018-03-31T04:30:31.358Z,99370.55
2018-03-31T04:32:57.457Z,99378.86
2018-03-31T04:35:23.377Z,99371.77
2018-03-31T04:37:49.341Z,99369.12
2018-03-31T04:40:15.365Z,99371.11
2018-03-31T04:42:41.306Z,99377.30
2018-03-31T04:45:07.238Z,99371.88
2018-03-31T04:47:33.174Z,99365.54
2018-03-31T04:49:59.131Z,99364.17
2018-03-31T04:52:25.078Z,99362.30
2018-03-31T04:54:51.073Z,99365.69
2018-03-31T04:57:17.030Z,99366.50
2018-03-31T04:59:42.975Z,99369.43
2018-03-31T05:02:08.918Z,99379.67
2018-03-31T05:04:34.851Z,99378.19
2018-03-31T05:07:00.815Z,99378.09
2018-03-31T05:09:26.746Z,99380.09
2018-03-31T05:11:52.770Z,99376.38
2018-03-31T05:14:18.666Z,99373.29
2018-03-31T05:16:44.598Z,99380.78
2018-03-31T05:19:10.550Z,99383.47
2018-03-31T05:21:36.510Z,99386.77
2018-03-31T05:24:02.452Z,99387.17
2018-03-31T05:26:28.467Z,99385.45
2018-03-31T05:28:54.365Z,99389.09
2018-03-31T05:31:20.298Z,99382.75
2018-03-31T05:33:46.319Z,99378.00
2018-03-31T05:36:12.259Z,99372.12
2018-03-31T05:38:38.207Z,99373.09
2018-03-31T05:41:04.146Z,99378.61
2018-03-31T05:43:30.131Z,99384.79
2018-03-31T05:45:56.084Z,99382.71
2018-03-31T05:48:22.030Z,99384.84
2018-03-31T05:50:47.979Z,99387.83
2018-03-31T05:53:13.914Z,99387.02
2018-03-31T05:55:39.869Z,99390.77
2018-03-31T05:58:05.823Z,99387.58
2018-03-31T06:00:31.789Z,99393.41
2018-03-31T06:02:57.730Z,99387.31
2018-03-31T06:05:23.685Z,99394.66
2018-03-31T06:07:49.653Z,99387.57
2018-03-31T06:10:15.578Z,99390.36
2018-03-31T06:12:41.507Z,99386.73
2018-03-31T06:15:07.461Z,99389.34
2018-03-31T06:17:33.414Z,99384.06
2018-03-31T06:19:59.348Z,99385.52
2018-03-31T06:22:25.309Z,99384.47
2018-03-31T06:24:51.244Z,99387.25
2018-03-31T06:27:17.192Z,99396.41
2018-03-31T06:29:43.145Z,99403.55
2018-03-31T06:32:09.088Z,99406.60
2018-03-31T06:34:35.023Z,99402.29
2018-03-31T06:37:00.958Z,99407.69
2018-03-31T06:39:26.906Z,99404.61
2018-03-31T06:41:52.848Z,99412.23
2018-03-31T06:44:18.842Z,99413.24
2018-03-31T06:46:44.833Z,99411.84
2018-03-31T06:49:10.733Z,99408.74
2018-03-31T06:51:36.673Z,99412.89
2018-03-31T06:54:02.617Z,99417.02
2018-03-31T06:56:28.574Z,99419.80
2018-03-31T06:58:54.523Z,99424.77
2018-03-31T07:01:20.456Z,99428.48
2018-03-31T07:03:46.422Z,99438.63
2018-03-31T07:06:12.377Z,99438.05
2018-03-31T07:08:38.337Z,99437.05
2018-03-31T07:11:04.287Z,99441.42
2018-03-31T07:13:30.255Z,99436.23
2018-03-31T07:15:56.187Z,99435.83
2018-03-31T07:18:22.146Z,99443.53
2018-03-31T07:20:48.110Z,99446.92
2018-03-31T07:23:14.058Z,99440.49
2018-03-31T07:25:40.041Z,99441.05
2018-03-31T07:28:05.978Z,99436.06
2018-03-31T07:30:31.965Z,99441.06
2018-03-31T07:32:57.997Z,99443.75
2018-03-31T07:35:23.946Z,99445.77
2018-03-31T07:37:49.882Z,99448.78
2018-03-31T07:40:15.873Z,99447.15
2018-03-31T07:42:41.817Z,99442.98
2018-03-31T07:45:07.789Z,99446.73
2018-03-31T07:47:33.787Z,99450.47
2018-03-31T07:49:59.753Z,99452.30
2018-03-31T07:52:25.690Z,99457.53
2018-03-31T07:54:51.661Z,99453.88
2018-03-31T07:57:17.606Z,99452.73
2018-03-31T07:59:43.573Z,99455.31
2018-03-31T08:02:09.638Z,99451.02
2018-03-31T08:04:35.593Z,99455.77
2018-03-31T08:07:01.543Z,99453.54
2018-03-31T08:09:27.498Z,99455.51
2018-03-31T08:11:53.461Z,99456.27
2018-03-31T08:14:19.409Z,99452.83
2018-03-31T08:16:45.499Z,99454.13
2018-03-31T08:19:11.421Z,99444.40
2018-03-31T08:21:37.369Z,99448.25
2018-03-31T08:24:03.337Z,99443.48
2018-03-31T08:26:29.270Z,99444.84
2018-03-31T08:28:55.214Z,99440.39
2018-03-31T08:31:21.188Z,99442.89
2018-03-31T08:33:47.134Z,99440.20
2018-03-31T08:36:13.089Z,99446.67
2018-03-31T08:38:39.036Z,99446.27
2018-03-31T08:41:04.969Z,99437.55
2018-03-31T08:43:30.935Z,99440.83
2018-03-31T08:45:56.873Z,99441.91
2018-03-31T08:48:22.824Z,99440.64
2018-03-31T08:50:48.774Z,99437.52
2018-03-31T08:53:14.713Z,99431.66
2018-03-31T08:55:40.658Z,99430.44
2018-03-31T08:58:06.602Z,99439.00
2018-03-31T09:00:32.552Z,99432.38
2018-03-31T09:02:58.481Z,99433.46
2018-03-31T09:05:24.446Z,99430.25
2018-03-31T09:07:50.383Z,99421.59
2018-03-31T09:10:16.330Z,99422.33
2018-03-31T09:12:42.262Z,99428.53
2018-03-31T09:15:08.210Z,99424.81
2018-03-31T09:17:34.179Z,99423.64
2018-03-31T09:20:00.158Z,99422.13
2018-03-31T09:22:26.112Z,99428.71
2018-03-31T09:24:52.046Z,99427.98
2018-03-31T09:27:17.994Z,99423.34
2018-03-31T09:29:43.951Z,99428.87
2018-03-31T09:32:09.931Z,99423.61
2018-03-31T09:34:35.881Z,99425.57
2018-03-31T09:37:01.809Z,99423.61
2018-03-31T09:39:27.781Z,99422.91
2018-03-31T09:41:53.745Z,99423.11
2018-03-31T09:44:19.698Z,99413.55
2018-03-31T09:46:45.667Z,99417.93
2018-03-31T09:49:11.582Z,99420.50
2018-03-31T09:51:37.522Z,99428.27
2018-03-31T09:54:03.498Z,99419.45
2018-03-31T09:56:29.440Z,99422.64
2018-03-31T09:58:55.387Z,99424.96
2018-03-31T10:01:21.318Z,99429.53
2018-03-31T10:03:47.276Z,99435.66
2018-03-31T10:06:13.218Z,99431.55
2018-03-31T10:08:39.179Z,99430.95
2018-03-31T10:11:05.112Z,99433.95
2018-03-31T10:13:31.053Z,99435.69
2018-03-31T10:15:56.989Z,99434.38
2018-03-31T10:18:22.935Z,99436.29
2018-03-31T10:20:48.894Z,99443.48
2018-03-31T10:23:14.859Z,99436.68
2018-03-31T10:25:40.809Z,99435.91
2018-03-31T10:28:06.751Z,99432.77
2018-03-31T10:30:32.701Z,99438.77
2018-03-31T10:32:58.626Z,99442.81
2018-03-31T10:35:24.645Z,99444.03
2018-03-31T10:37:50.545Z,99445.94
2018-03-31T10:40:16.504Z,99437.44
2018-03-31T10:42:42.508Z,99436.92
2018-03-31T10:45:08.410Z,99440.16
2018-03-31T10:47:34.393Z,99443.76
2018-03-31T10:50:00.370Z,99437.28
2018-03-31T10:52:26.338Z,99436.73
2018-03-31T10:54:52.273Z,99439.52
2018-03-31T10:57:18.240Z,99436.37
2018-03-31T10:59:44.174Z,99438.34
2018-03-31T11:02:10.167Z,99432.01
2018-03-31T11:04:36.096Z,99425.66
2018-03-31T11:07:02.057Z,99424.86
2018-03-31T11:09:28.053Z,99427.64
2018-03-31T11:11:53.994Z,99423.94
2018-03-31T11:14:19.966Z,99433.38
2018-03-31T11:16:45.953Z,99427.79
2018-03-31T11:19:11.916Z,99433.47
2018-03-31T11:21:37.852Z,99432.82
2018-03-31T11:24:03.842Z,99430.02
2018-03-31T11:26:29.798Z,99433.81
2018-03-31T11:28:55.766Z,99435.58
2018-03-31T11:31:21.707Z,99434.95
2018-03-31T11:33:47.677Z,99439.53
2018-03-31T11:36:13.617Z,99435.75
2018-03-31T11:38:39.642Z,99437.65
2018-03-31T11:41:05.637Z,99438.98
2018-03-31T11:43:31.577Z,99435.53
2018-03-31T11:45:57.531Z,99433.11
2018-03-31T11:48:23.510Z,99435.03
2018-03-31T11:50:49.469Z,99428.16
2018-03-31T11:53:15.418Z,99432.31
2018-03-31T11:55:41.378Z,99431.17
2018-03-31T11:58:07.339Z,99433.20
2018-03-31T12:00:33.288Z,99433.16
2018-03-31T12:02:59.241Z,99435.45
2018-03-31T12:05:25.182Z,99432.82
2018-03-31T12:07:51.189Z,99433.45
2018-03-31T12:10:17.138Z,99432.84
2018-03-31T12:12:43.093Z,99429.25
2018-03-31T12:15:09.142Z,99434.84
2018-03-31T12:17:35.097Z,99436.47
2018-03-31T12:20:01.034Z,99439.68
2018-03-31T12:22:26.990Z,99442.92
2018-03-31T12:24:52.945Z,99441.05
2018-03-31T12:27:18.890Z,99447.84
2018-03-31T12:29:44.845Z,99438.20
2018-03-31T12:32:10.813Z,99438.87
2018-03-31T12:34:36.756Z,99438.45
2018-03-31T12:37:02.704Z,99437.21
2018-03-31T12:39:28.674Z,99438.38
2018-03-31T12:41:54.622Z,99438.17
2018-03-31T12:44:20.577Z,99438.84
2018-03-31T12:46:46.518Z,99434.28
2018-03-31T12:49:12.478Z,99433.06
2018-03-31T12:51:38.423Z,99437.02
2018-03-31T12:54:04.353Z,99435.56
2018-03-31T12:56:30.359Z,99429.18
2018-03-31T12:58:56.291Z,99426.47
2018-03-31T13:01:22.233Z,99428.98
2018-03-31T13:03:48.205Z,99425.48
2018-03-31T13:06:14.169Z,99423.06
2018-03-31T13:08:40.106Z,99421.97
2018-03-31T13:11:06.038Z,99422.28
2018-03-31T13:13:31.982Z,99422.78
2018-03-31T13:15:57.921Z,99425.83
2018-03-31T13:18:23.878Z,99415.44
2018-03-31T13:20:49.836Z,99418.89
2018-03-31T13:23:15.824Z,99416.45
2018-03-31T13:25:41.769Z,99407.39
2018-03-31T13:28:07.705Z,99408.76
2018-03-31T13:30:33.650Z,99404.73
2018-03-31T13:32:59.595Z,99412.16
2018-03-31T13:35:25.549Z,99408.85
2018-03-31T13:37:51.508Z,99410.10
2018-03-31T13:40:17.462Z,99405.70
2018-03-31T13:42:43.441Z,99395.77
2018-03-31T13:45:09.431Z,99399.48
2018-03-31T13:47:35.407Z,99396.95
2018-03-31T13:50:01.395Z,99395.52
2018-03-31T13:52:27.342Z,99394.16
2018-03-31T13:54:53.289Z,99391.78
2018-03-31T13:57:19.243Z,99389.59
2018-03-31T13:59:45.214Z,99384.42
2018-03-31T14:02:11.273Z,99392.52
2018-03-31T14:04:37.214Z,99393.27
2018-03-31T14:07:03.161Z,99401.83
2018-03-31T14:09:29.143Z,99398.78
2018-03-31T14:11:55.087Z,99396.95
2018-03-31T14:14:21.046Z,99399.43
2018-03-31T14:16:47.006Z,99399.55
2018-03-31T14:19:12.938Z,99395.50
2018-03-31T14:21:38.901Z,99401.56
2018-03-31T14:24:04.850Z,99398.18
2018-03-31T14:26:30.785Z,99396.22
2018-03-31T14:28:56.725Z,99401.84
2018-03-31T14:31:22.685Z,99399.36
2018-03-31T14:33:48.632Z,99387.25
2018-03-31T14:36:14.597Z,99392.96
2018-03-31T14:38:40.532Z,99395.73
2018-03-31T14:41:06.491Z,99397.67
2018-03-31T14:43:32.487Z,99409.25
2018-03-31T14:45:58.416Z,99403.19
2018-03-31T14:48:24.397Z,99402.88
2018-03-31T14:50:50.333Z,99405.52
2018-03-31T14:53:16.273Z,99408.16
2018-03-31T14:55:42.234Z,99403.94
2018-03-31T14:58:08.190Z,99398.13
2018-03-31T15:00:34.129Z,99397.94
2018-03-31T15:03:00.084Z,99397.39
2018-03-31T15:05:26.053Z,99399.45
2018-03-31T15:07:52.015Z,99397.23
2018-03-31T15:10:17.954Z,99403.66
2018-03-31T15:12:43.906Z,99405.70
2018-03-31T15:15:09.813Z,99409.62
2018-03-31T15:17:35.784Z,99409.09
2018-03-31T15:20:01.751Z,99409.66
2018-03-31T15:22:27.697Z,99411.70
2018-03-31T15:24:53.630Z,99409.27
2018-03-31T15:27:19.597Z,99409.06
2018-03-31T15:29:45.602Z,99406.64
2018-03-31T15:32:11.582Z,99407.53
2018-03-31T15:34:37.533Z,99404.75
2018-03-31T15:37:03.474Z,99403.02
2018-03-31T15:39:29.417Z,99404.65
2018-03-31T15:41:55.384Z,99404.75
2018-03-31T15:44:21.326Z,99406.31
2018-03-31T15:46:47.266Z,99409.16
2018-03-31T15:49:13.206Z,99404.47
2018-03-31T15:51:39.154Z,99403.17
2018-03-31T15:54:05.093Z,99407.13
2018-03-31T15:56:31.058Z,99407.75
2018-03-31T15:58:56.997Z,99401.08
2018-03-31T16:01:22.946Z,99403.19
2018-03-31T16:03:48.906Z,99408.48
2018-03-31T16:06:14.878Z,99405.59
2018-03-31T16:08:40.835Z,99407.67
2018-03-31T16:11:06.770Z,99412.11
2018-03-31T16:13:32.725Z,99414.65
2018-03-31T16:15:58.665Z,99416.57
2018-03-31T16:18:24.637Z,99418.61
2018-03-31T16:20:50.585Z,99414.34
2018-03-31T16:23:16.488Z,99420.81
2018-03-31T16:25:42.466Z,99419.64
2018-03-31T16:28:08.442Z,99420.47
2018-03-31T16:30:34.407Z,99418.17
2018-03-31T16:33:00.342Z,99427.67
2018-03-31T16:35:26.285Z,99425.39
2018-03-31T16:37:52.238Z,99423.31
2018-03-31T16:40:18.181Z,99425.08
2018-03-31T16:42:44.130Z,99420.19
2018-03-31T16:45:10.073Z,99421.77
2018-03-31T16:47:36.010Z,99423.78
2018-03-31T16:50:01.959Z,99423.31
2018-03-31T16:52:27.925Z,99423.98
2018-03-31T16:54:53.874Z,99429.66
2018-03-31T16:57:19.826Z,99426.95
2018-03-31T16:59:45.878Z,99433.92
2018-03-31T17:02:11.828Z,99436.40
2018-03-31T17:04:37.789Z,99437.48
2018-03-31T17:07:03.741Z,99431.75
2018-03-31T17:09:29.689Z,99437.57
2018-03-31T17:11:55.633Z,99433.92
2018-03-31T17:14:21.596Z,99437.25
2018-03-31T17:16:47.551Z,99436.40
2018-03-31T17:19:13.497Z,99434.31
2018-03-31T17:21:39.465Z,99434.07
2018-03-31T17:24:05.405Z,99440.36
2018-03-31T17:26:31.364Z,99441.53
2018-03-31T17:28:57.326Z,99446.14
2018-03-31T17:31:23.285Z,99448.98
2018-03-31T17:33:49.240Z,99451.98
2018-03-31T17:36:15.193Z,99442.73
2018-03-31T17:38:41.138Z,99448.36
2018-03-31T17:41:07.123Z,99452.50
2018-03-31T17:43:33.122Z,99455.84
2018-03-31T17:45:59.063Z,99454.84
2018-03-31T17:48:25.026Z,99457.27
2018-03-31T17:50:51.065Z,99455.43
2018-03-31T17:53:17.006Z,99458.80
2018-03-31T17:55:42.941Z,99455.91
2018-03-31T17:58:08.881Z,99458.80
2018-03-31T18:00:34.842Z,99460.18
2018-03-31T18:03:00.794Z,99464.95
2018-03-31T18:05:26.734Z,99467.59
2018-03-31T18:07:52.682Z,99462.55
2018-03-31T18:10:18.635Z,99469.55
2018-03-31T18:12:44.593Z,99466.77
2018-03-31T18:15:10.546Z,99471.73
2018-03-31T18:17:36.482Z,99475.55
2018-03-31T18:20:02.424Z,99475.21
2018-03-31T18:22:28.369Z,99482.00
2018-03-31T18:24:54.354Z,99478.64
2018-03-31T18:27:20.298Z,99483.06
2018-03-31T18:29:46.249Z,99491.13
2018-03-31T18:32:12.198Z,99488.35
2018-03-31T18:34:38.145Z,99490.98
2018-03-31T18:37:04.121Z,99488.76
2018-03-31T18:39:30.084Z,99494.33
2018-03-31T18:41:56.044Z,99498.02
2018-03-31T18:44:21.997Z,99500.00
2018-03-31T18:46:47.962Z,99501.73
2018-03-31T18:49:13.909Z,99510.55
2018-03-31T18:51:39.865Z,99512.28
2018-03-31T18:54:05.810Z,99519.72
2018-03-31T18:56:31.740Z,99523.69
2018-03-31T18:58:57.731Z,99522.66
2018-03-31T19:01:23.690Z,99533.41
2018-03-31T19:03:49.643Z,99536.61
2018-03-31T19:06:15.650Z,99533.63
2018-03-31T19:08:41.590Z,99542.47
2018-03-31T19:11:07.540Z,99537.68
2018-03-31T19:13:33.515Z,99549.65
2018-03-31T19:15:59.467Z,99551.13
2018-03-31T19:18:25.403Z,99560.92
2018-03-31T19:20:51.357Z,99575.03
2018-03-31T19:23:17.313Z,99591.50
2018-03-31T19:25:43.260Z,99595.63
2018-03-31T19:28:09.211Z,99599.52
2018-03-31T19:30:35.162Z,99599.78
2018-03-31T19:33:01.107Z,99619.97
2018-03-31T19:35:27.045Z,99616.47
2018-03-31T19:37:53.119Z,99628.02
2018-03-31T19:40:19.066Z,99633.91
2018-03-31T19:42:45.014Z,99632.84
2018-03-31T19:45:11.073Z,99641.47
2018-03-31T19:47:37.026Z,99650.13
2018-03-31T19:50:02.967Z,99657.53
2018-03-31T19:52:28.924Z,99662.36
2018-03-31T19:54:54.878Z,99660.34
2018-03-31T19:57:20.813Z,99663.58
2018-03-31T19:59:46.773Z,99666.53
2018-03-31T20:02:12.713Z,99676.52
2018-03-31T20:04:38.723Z,99673.97
2018-03-31T20:07:04.694Z,99677.94
2018-03-31T20:09:30.675Z,99682.30
2018-03-31T20:11:56.613Z,99689.80
2018-03-31T20:14:22.576Z,99693.66
2018-03-31T20:16:48.551Z,99691.44
2018-03-31T20:19:14.596Z,99695.80
2018-03-31T20:21:40.611Z,99706.13
2018-03-31T20:24:06.640Z,99701.47
2018-03-31T20:26:32.702Z,99710.14
2018-03-31T20:28:58.648Z,99704.97
2018-03-31T20:31:24.612Z,99707.51
2018-03-31T20:33:50.545Z,99707.76
2018-03-31T20:36:16.511Z,99710.84
2018-03-31T20:38:42.529Z,99711.21
2018-03-31T20:41:08.476Z,99709.17
2018-03-31T20:43:34.418Z,99701.17
2018-03-31T20:46:00.378Z,99706.28
2018-03-31T20:48:26.334Z,99700.77
2018-03-31T20:50:52.285Z,99696.80
2018-03-31T20:53:18.221Z,99696.80
2018-03-31T20:55:44.327Z,99695.58
2018-03-31T20:58:10.310Z,99696.14
2018-03-31T21:00:36.254Z,99691.18
2018-03-31T21:03:02.216Z,99701.07
2018-03-31T21:05:28.200Z,99696.23
2018-03-31T21:07:54.154Z,99697.72
2018-03-31T21:10:20.110Z,99698.78
2018-03-31T21:12:46.054Z,99695.48
2018-03-31T21:15:12.213Z,99694.73
2018-03-31T21:17:38.146Z,99698.83
2018-03-31T21:20:04.085Z,99700.41
2018-03-31T21:22:30.026Z,99709.73
2018-03-31T21:24:56.046Z,99707.20
2018-03-31T21:27:22.014Z,99711.06
2018-03-31T21:29:47.991Z,99716.48
2018-03-31T21:32:13.935Z,99708.42
2018-03-31T21:34:39.899Z,99715.95
2018-03-31T21:37:05.858Z,99710.84
2018-03-31T21:39:31.830Z,99716.77
2018-03-31T21:41:57.830Z,99711.75
2018-03-31T21:44:23.788Z,99710.51
2018-03-31T21:46:49.733Z,99715.27
2018-03-31T21:49:15.693Z,99714.45
2018-03-31T21:51:41.653Z,99724.40
2018-03-31T21:54:07.605Z,99733.31
2018-03-31T21:56:33.624Z,99741.58
2018-03-31T21:58:59.511Z,99734.63
2018-03-31T22:01:25.470Z,99734.54
2018-03-31T22:03:51.402Z,99728.80
2018-03-31T22:06:17.355Z,99729.77
2018-03-31T22:08:43.305Z,99732.25
2018-03-31T22:11:09.254Z,99735.13
2018-03-31T22:13:35.211Z,99732.81
2018-03-31T22:16:01.190Z,99733.87
2018-03-31T22:18:27.145Z,99729.67
2018-03-31T22:20:53.165Z,99731.59
2018-03-31T22:23:19.142Z,99729.20
2018-03-31T22:25:45.106Z,99729.67
2018-03-31T22:28:11.051Z,99735.36
2018-03-31T22:30:37.002Z,99728.61
2018-03-31T22:33:02.939Z,99731.34
2018-03-31T22:35:28.886Z,99730.42
2018-03-31T22:37:54.844Z,99733.31
2018-03-31T22:40:20.811Z,99736.05
2018-03-31T22:42:46.783Z,99732.91
2018-03-31T22:45:13.139Z,99735.39
2018-03-31T22:47:39.173Z,99735.45
2018-03-31T22:50:05.117Z,99734.73
2018-03-31T22:52:31.054Z,99733.09
2018-03-31T22:54:57.010Z,99735.08
2018-03-31T22:57:22.967Z,99739.00
2018-03-31T22:59:48.898Z,99741.10
2018-03-31T23:02:14.846Z,99737.96
2018-03-31T23:04:40.785Z,99736.23
2018-03-31T23:07:06.746Z,99742.02
2018-03-31T23:09:32.741Z,99740.59
2018-03-31T23:11:58.693Z,99734.60
2018-03-31T23:14:24.644Z,99733.28
2018-03-31T23:16:50.602Z,99730.65
2018-03-31T23:19:16.553Z,99720.41
2018-03-31T23:21:42.487Z,99711.13
2018-03-31T23:24:08.437Z,99719.45
2018-03-31T23:26:34.402Z,99719.00
2018-03-31T23:29:00.361Z,99724.30
2018-03-31T23:31:26.328Z,99734.85
2018-03-31T23:33:52.278Z,99740.66
2018-03-31T23:36:18.358Z,99745.24
2018-03-31T23:38:44.325Z,99743.02
2018-03-31T23:41:10.274Z,99745.05
2018-03-31T23:43:36.315Z,99749.25
2018-03-31T23:46:02.255Z,99742.00
2018-03-31T23:48:28.262Z,99746.68
2018-03-31T23:50:54.226Z,99739.18
2018-03-31T23:53:20.182Z,99736.48
2018-03-31T23:55:46.126Z,99726.19
2018-03-31T23:58:12.079Z,99721.48
